< Typhoon 199913 1999 Season Typhoon 199915 >
Typhoon 199914 (WENDY)
General InformationTrack Information on Google MapsDetailed Wind InformationList of All Images || Disaster Info.ResourceGoogle EarthGE AnimationAtom FeedGeoJSON
Detalied Best Track (Time Zone = UTC)
Year Month Day Hour Lat. Long. Pressure (hPa) Wind (kt) Class Image Chart
1999 9 1 12 15.9 126.4 1004 0 2 Image Chart
1999 9 1 18 17.0 125.4 1004 0 2 Image Chart
1999 9 2 00 17.1 123.9 1004 0 2 Image Chart
1999 9 2 06 18.4 122.7 1000 0 2 Image Chart
1999 9 2 12 19.0 122.0 1000 0 2 Image Chart
1999 9 2 18 19.5 121.0 1000 0 2 Image Chart
1999 9 3 00 20.2 119.5 1000 0 2 Image Chart
1999 9 3 06 21.3 118.2 996 35 3 Image Chart
1999 9 3 12 22.2 117.4 996 35 3 Image Chart
1999 9 3 18 22.7 117.0 1000 0 2 Image Chart
1999 9 4 00 23.2 116.2 1002 0 2 Image Chart
1999 9 4 06 24.4 115.3 1004 0 2 Image Chart
1999 9 4 12 26.0 115.5 1006 0 2 Image Chart
1999 9 4 18 27.0 115.8 1006 0 2 Image Chart
1999 9 5 00 27.8 116.3 1006 0 2 Image Chart
1999 9 5 06 28.3 117.2 1006 0 2 Image Chart
1999 9 5 12 29.2 118.0 1006 0 2 Image Chart
1999 9 5 18 30.4 119.6 1006 0 2 Image Chart
1999 9 6 00 31.2 121.1 1006 0 2 Image Chart
1999 9 6 06 32.4 123.2 1006 0 2 Image Chart
1999 9 6 12 33.1 125.2 1006 0 2 Image Chart
1999 9 6 18 33.8 126.1 1006 0 2 Image Chart
1999 9 7 00 34.9 127.3 1006 0 2 Image Chart
1999 9 7 06 36.3 128.7 1006 0 2 Image Chart
Japan Meteorological Agency Best Track Data | Correction Date : 2005-03-01
< Typhoon 199913 1999 Season Typhoon 199915 >

Help